Time;durP1;ratioP1;P1;durP2;ratioP2;P2;SDS_P1;SDS_P2;PMS_P1;PMS_P2;Temp;Humidity;BMP_temperature;BMP_pressure;BME280_temperature;BME280_humidity;BME280_pressure;Samples;Min_cycle;Max_cycle;Signal;HPM_P1;HPM_P2
2022/09/22 00:00:58;;;;;;;6.00;2.53;;;8.90;99.90;;;;;;5091254;28;20436;-60
2022/09/22 00:03:24;;;;;;;7.50;3.10;;;8.80;99.90;;;;;;5074488;28;20040;-60
2022/09/22 00:06:05;;;;;;;8.57;3.50;;;8.80;99.90;;;;;;5074064;28;20115;-60
2022/09/22 00:08:33;;;;;;;6.22;3.08;;;8.80;99.90;;;;;;5091953;28;20111;-60
2022/09/22 00:10:59;;;;;;;8.40;3.20;;;8.70;99.90;;;;;;5073759;28;20044;-60
2022/09/22 00:13:25;;;;;;;7.00;3.22;;;8.70;99.90;;;;;;5092339;28;20040;-60
2022/09/22 00:15:51;;;;;;;7.93;3.10;;;8.70;99.90;;;;;;5091482;28;20556;-60
2022/09/22 00:18:16;;;;;;;8.13;3.20;;;8.70;99.90;;;;;;5073934;28;20396;-60
2022/09/22 00:20:42;;;;;;;6.47;3.53;;;8.70;99.90;;;;;;5073420;28;20032;-60
2022/09/22 00:23:08;;;;;;;8.95;3.60;;;8.60;99.90;;;;;;5091437;28;20042;-60
2022/09/22 00:25:37;;;;;;;6.97;3.50;;;8.70;99.90;;;;;;5092429;28;20039;-60
2022/09/22 00:28:03;;;;;;;8.15;3.55;;;8.60;99.90;;;;;;5056216;28;20040;-60
2022/09/22 00:30:30;;;;;;;6.32;2.97;;;8.60;99.90;;;;;;5074394;28;20401;-60
2022/09/22 00:32:55;;;;;;;6.82;3.13;;;8.60;99.90;;;;;;5073359;28;20051;-60
2022/09/22 00:35:21;;;;;;;6.78;2.72;;;8.60;99.90;;;;;;5091374;28;20032;-60
2022/09/22 00:37:47;;;;;;;5.90;2.88;;;8.60;99.90;;;;;;5091292;28;20036;-60
2022/09/22 00:40:12;;;;;;;5.38;2.75;;;8.60;99.90;;;;;;5092316;28;20043;-60
2022/09/22 00:42:38;;;;;;;21.48;3.40;;;8.60;99.90;;;;;;5091424;28;20079;-60
2022/09/22 00:45:05;;;;;;;6.47;3.00;;;8.50;99.90;;;;;;5073488;28;20106;-60
2022/09/22 00:47:39;;;;;;;7.28;3.15;;;8.50;99.90;;;;;;5091981;28;20386;-60
2022/09/22 00:50:11;;;;;;;6.28;3.22;;;8.50;99.90;;;;;;5090756;28;20274;-60
2022/09/22 00:52:43;;;;;;;8.02;3.53;;;8.40;99.90;;;;;;5074824;28;20441;-60
2022/09/22 00:55:20;;;;;;;7.03;3.17;;;8.40;99.90;;;;;;5095227;28;20047;-60
2022/09/22 00:57:47;;;;;;;6.03;3.10;;;8.40;99.90;;;;;;5059464;28;20075;-60
2022/09/22 01:00:13;;;;;;;8.27;3.97;;;8.40;99.90;;;;;;5095795;28;20090;-60
2022/09/22 01:02:40;;;;;;;7.85;3.58;;;8.40;99.90;;;;;;5095367;28;20039;-60
2022/09/22 01:05:07;;;;;;;7.70;3.60;;;8.30;99.90;;;;;;5094829;28;20047;-60
2022/09/22 01:07:34;;;;;;;5.95;3.28;;;8.30;99.90;;;;;;5077475;28;20040;-60
2022/09/22 01:09:59;;;;;;;6.68;3.35;;;8.30;99.90;;;;;;5094419;28;20043;-60
2022/09/22 01:12:28;;;;;;;7.85;3.85;;;8.20;99.90;;;;;;5077553;28;20044;-60
2022/09/22 01:15:12;;;;;;;10.30;4.05;;;8.30;99.90;;;;;;5076801;28;20044;-60
2022/09/22 01:17:46;;;;;;;7.55;4.10;;;8.20;99.90;;;;;;5076323;28;20047;-60
2022/09/22 01:20:48;;;;;;;14.52;4.10;;;8.20;99.90;;;;;;5095614;28;20072;-60
2022/09/22 01:23:39;;;;;;;9.05;4.50;;;8.20;99.90;;;;;;4996705;28;20061;-60
2022/09/22 01:26:22;;;;;;;7.40;3.85;;;8.10;99.90;;;;;;5091183;28;20051;-60
2022/09/22 01:29:12;;;;;;;11.85;4.50;;;8.10;99.90;;;;;;5076496;28;20133;-60
2022/09/22 01:31:47;;;;;;;10.23;4.32;;;8.10;99.90;;;;;;5094264;28;20122;-60
2022/09/22 01:34:16;;;;;;;7.40;4.68;;;8.10;99.90;;;;;;5076980;28;20044;-60
2022/09/22 01:36:51;;;;;;;8.32;4.20;;;8.00;99.90;;;;;;5095256;28;20412;-60
2022/09/22 01:39:29;;;;;;;9.82;4.15;;;8.10;99.90;;;;;;5076127;28;20119;-60
2022/09/22 01:42:04;;;;;;;11.20;4.32;;;8.00;99.90;;;;;;5094524;28;20040;-60
2022/09/22 01:44:33;;;;;;;6.45;3.55;;;8.00;99.90;;;;;;5094734;28;20396;-60
2022/09/22 01:47:25;;;;;;;7.47;4.32;;;8.00;99.90;;;;;;5093769;28;20392;-60
2022/09/22 01:49:54;;;;;;;7.43;4.00;;;8.00;99.90;;;;;;5067520;28;20052;-60
2022/09/22 01:52:25;;;;;;;9.77;4.40;;;7.90;99.90;;;;;;5094084;28;20119;-60
2022/09/22 01:55:04;;;;;;;8.75;4.47;;;7.90;99.90;;;;;;5094002;28;20040;-60
2022/09/22 01:57:49;;;;;;;6.85;3.80;;;7.90;99.90;;;;;;5076637;28;20488;-60
2022/09/22 02:00:15;;;;;;;7.05;4.65;;;7.90;99.90;;;;;;5093855;28;20051;-60
2022/09/22 02:03:07;;;;;;;9.13;5.03;;;7.90;99.90;;;;;;5076555;28;20036;-60
2022/09/22 02:05:46;;;;;;;7.60;4.18;;;7.90;99.90;;;;;;5094666;28;20198;-60
2022/09/22 02:08:18;;;;;;;8.35;4.28;;;7.90;99.90;;;;;;5093791;28;20044;-60
2022/09/22 02:10:46;;;;;;;9.52;3.88;;;7.90;99.90;;;;;;5094523;28;20092;-60
2022/09/22 02:13:12;;;;;;;8.98;5.00;;;7.90;99.90;;;;;;5093450;28;20082;-60
2022/09/22 02:18:26;;;;;;;8.15;5.05;;;7.80;99.90;;;;;;5094396;28;20062;-61
2022/09/22 02:20:52;;;;;;;7.68;4.13;;;7.80;99.90;;;;;;5092708;28;20039;-60
2022/09/22 02:23:18;;;;;;;8.32;4.20;;;7.80;99.90;;;;;;5094081;28;20127;-60
2022/09/22 02:25:44;;;;;;;7.03;4.35;;;7.80;99.90;;;;;;5075945;28;20115;-60
2022/09/22 02:28:15;;;;;;;7.70;4.63;;;7.80;99.90;;;;;;5093014;28;20063;-60
2022/09/22 02:30:44;;;;;;;7.95;4.10;;;7.70;99.90;;;;;;5094285;28;20039;-60
2022/09/22 02:33:12;;;;;;;6.60;3.95;;;7.70;99.90;;;;;;5094129;28;20047;-60
2022/09/22 02:35:39;;;;;;;6.07;3.80;;;7.60;99.90;;;;;;5075056;28;20536;-60
2022/09/22 02:38:25;;;;;;;7.65;4.15;;;7.70;99.90;;;;;;5075140;28;20130;-60
2022/09/22 02:41:07;;;;;;;7.10;3.67;;;7.60;99.90;;;;;;5093277;28;20047;-60
2022/09/22 02:43:58;;;;;;;6.53;3.83;;;7.70;99.90;;;;;;5075525;28;20048;-60
2022/09/22 02:46:40;;;;;;;7.55;4.00;;;7.70;99.90;;;;;;5058908;28;20043;-60
2022/09/22 02:49:10;;;;;;;8.68;5.07;;;7.60;99.90;;;;;;5092157;28;20052;-60
2022/09/22 02:51:36;;;;;;;11.77;4.82;;;7.60;99.90;;;;;;5075691;28;20044;-60
2022/09/22 02:54:03;;;;;;;8.38;4.20;;;7.60;99.90;;;;;;5093146;28;20036;-60
2022/09/22 02:56:28;;;;;;;7.47;4.68;;;7.50;99.90;;;;;;5092863;28;20044;-60
2022/09/22 02:58:54;;;;;;;7.38;4.60;;;7.60;99.90;;;;;;5074706;28;20115;-60
2022/09/22 03:01:20;;;;;;;6.82;4.10;;;7.50;99.90;;;;;;5093303;28;20036;-60
2022/09/22 03:03:45;;;;;;;6.82;4.15;;;7.50;99.90;;;;;;5092294;28;20036;-60
2022/09/22 03:06:11;;;;;;;7.25;4.10;;;7.50;99.90;;;;;;5075592;28;20032;-60
2022/09/22 03:08:37;;;;;;;7.72;4.55;;;7.50;99.90;;;;;;5075494;28;20482;-60
2022/09/22 03:11:03;;;;;;;9.73;4.57;;;7.50;99.90;;;;;;5092027;28;20047;-60
2022/09/22 03:13:29;;;;;;;9.45;4.72;;;7.50;99.90;;;;;;5074971;28;20515;-60
2022/09/22 03:15:54;;;;;;;9.77;4.40;;;7.50;99.90;;;;;;5092117;28;20115;-60
2022/09/22 03:18:20;;;;;;;6.95;3.85;;;7.50;99.90;;;;;;5092202;28;20101;-60
2022/09/22 03:20:46;;;;;;;9.38;4.57;;;7.50;99.90;;;;;;5092782;28;20036;-60
2022/09/22 03:23:11;;;;;;;9.93;4.40;;;7.50;99.90;;;;;;5074825;28;20048;-60
2022/09/22 03:25:37;;;;;;;7.03;3.58;;;7.40;99.90;;;;;;5092130;28;20088;-60
2022/09/22 03:28:03;;;;;;;6.65;3.72;;;7.40;99.90;;;;;;5074135;28;20046;-60
2022/09/22 03:30:29;;;;;;;6.65;3.40;;;7.40;99.90;;;;;;5092122;28;20483;-60
2022/09/22 03:32:55;;;;;;;6.97;4.00;;;7.40;99.90;;;;;;5092259;28;20044;-60
2022/09/22 03:35:21;;;;;;;5.85;3.80;;;7.40;99.90;;;;;;5093002;28;20039;-60
2022/09/22 03:37:46;;;;;;;6.80;3.47;;;7.40;99.90;;;;;;5091245;28;20385;-60
2022/09/22 03:40:12;;;;;;;8.45;4.65;;;7.30;99.90;;;;;;5092790;28;20040;-60
2022/09/22 03:42:38;;;;;;;9.88;4.95;;;7.30;99.90;;;;;;5092799;28;20032;-60
2022/09/22 03:45:04;;;;;;;7.13;4.18;;;7.30;99.90;;;;;;5091305;28;20098;-60
2022/09/22 03:47:30;;;;;;;9.02;4.05;;;7.30;99.90;;;;;;5092678;28;20050;-60
2022/09/22 03:49:55;;;;;;;7.45;4.00;;;7.30;99.90;;;;;;5074097;28;20400;-60
2022/09/22 03:52:21;;;;;;;6.85;4.28;;;7.30;99.90;;;;;;5073795;28;20044;-60
2022/09/22 03:54:47;;;;;;;7.80;4.03;;;7.30;99.90;;;;;;5074002;28;20077;-60
2022/09/22 03:57:13;;;;;;;9.80;4.65;;;7.40;99.90;;;;;;5092366;28;20038;-60
2022/09/22 03:59:39;;;;;;;6.88;3.88;;;7.30;99.90;;;;;;5073747;28;20035;-60
2022/09/22 04:02:04;;;;;;;7.40;4.47;;;7.30;99.90;;;;;;5091881;28;20036;-60
2022/09/22 04:04:31;;;;;;;7.53;3.55;;;7.30;99.90;;;;;;5092417;28;20036;-60
2022/09/22 04:06:57;;;;;;;7.53;3.75;;;7.30;99.90;;;;;;5073398;28;20426;-60
2022/09/22 04:09:23;;;;;;;8.63;3.88;;;7.20;99.90;;;;;;5074304;28;20047;-60
2022/09/22 04:11:49;;;;;;;6.90;3.70;;;7.20;99.90;;;;;;5091828;28;20040;-60
2022/09/22 04:14:14;;;;;;;7.35;3.30;;;7.20;99.90;;;;;;5057168;28;20035;-60
2022/09/22 04:16:41;;;;;;;6.28;3.45;;;7.20;99.90;;;;;;5074552;28;20550;-60
2022/09/22 04:19:10;;;;;;;7.28;3.42;;;7.10;99.90;;;;;;5091646;28;20096;-60
2022/09/22 04:21:35;;;;;;;7.22;3.70;;;7.20;99.90;;;;;;5091393;28;20131;-60
2022/09/22 04:24:02;;;;;;;7.55;3.60;;;7.10;99.90;;;;;;5091696;28;20524;-60
2022/09/22 04:26:27;;;;;;;8.95;3.55;;;7.10;99.90;;;;;;5074153;28;20079;-60
2022/09/22 04:28:53;;;;;;;9.32;4.75;;;7.10;99.90;;;;;;5093605;28;20075;-60
2022/09/22 04:31:19;;;;;;;6.50;3.97;;;7.10;99.90;;;;;;5078229;28;20051;-60
2022/09/22 04:33:45;;;;;;;5.95;3.55;;;7.10;99.90;;;;;;5095223;28;20062;-60
2022/09/22 04:36:10;;;;;;;8.75;4.35;;;7.00;99.90;;;;;;5078083;28;20518;-60
2022/09/22 04:38:36;;;;;;;7.50;3.83;;;7.00;99.90;;;;;;5095982;28;20093;-60
2022/09/22 04:41:02;;;;;;;10.05;4.00;;;7.00;99.90;;;;;;5076685;28;20556;-60
2022/09/22 04:43:27;;;;;;;7.22;4.43;;;6.90;99.90;;;;;;5077966;28;20484;-60
2022/09/22 04:45:53;;;;;;;8.73;3.75;;;7.00;99.90;;;;;;5077453;28;20036;-60
2022/09/22 04:48:18;;;;;;;6.05;3.38;;;6.90;99.90;;;;;;5077395;28;20043;-60
2022/09/22 04:50:44;;;;;;;7.43;3.30;;;7.00;99.90;;;;;;5095877;28;20082;-60
2022/09/22 04:53:11;;;;;;;7.57;3.60;;;6.90;99.90;;;;;;5095683;28;20036;-60
2022/09/22 04:55:37;;;;;;;9.95;4.07;;;6.90;99.90;;;;;;5095131;28;20051;-60
2022/09/22 04:58:03;;;;;;;5.93;3.35;;;6.90;99.90;;;;;;5095305;28;20480;-60
2022/09/22 05:00:29;;;;;;;7.50;3.50;;;6.90;99.90;;;;;;5077643;28;20105;-60
2022/09/22 05:02:55;;;;;;;10.57;4.30;;;6.90;99.90;;;;;;5059646;28;20080;-60
2022/09/22 05:05:23;;;;;;;6.63;3.88;;;6.90;99.90;;;;;;5077572;28;20051;-60
2022/09/22 05:07:53;;;;;;;8.60;3.72;;;6.90;99.90;;;;;;5076819;28;20044;-60
2022/09/22 05:10:20;;;;;;;10.63;4.78;;;6.90;99.90;;;;;;5076765;28;20039;-60
2022/09/22 05:12:46;;;;;;;7.68;3.97;;;6.90;99.90;;;;;;5094923;28;20377;-60
2022/09/22 05:15:13;;;;;;;8.25;4.18;;;6.90;99.90;;;;;;5095584;28;20050;-60
2022/09/22 05:17:47;;;;;;;7.93;3.47;;;6.90;99.90;;;;;;5076294;28;20124;-60
2022/09/22 05:20:13;;;;;;;7.28;4.07;;;7.00;99.90;;;;;;5077348;28;20047;-60
2022/09/22 05:22:39;;;;;;;8.15;4.28;;;7.00;99.90;;;;;;5095139;28;20052;-60
2022/09/22 05:25:07;;;;;;;8.57;4.20;;;7.00;99.90;;;;;;5075956;28;20052;-60
2022/09/22 05:27:32;;;;;;;9.63;4.65;;;7.00;99.90;;;;;;5077592;28;20108;-60
2022/09/22 05:29:58;;;;;;;9.05;4.38;;;7.00;99.90;;;;;;5075884;28;20036;-60
2022/09/22 05:32:24;;;;;;;7.25;3.97;;;7.00;99.90;;;;;;5077065;28;20064;-60
2022/09/22 05:34:49;;;;;;;8.85;4.53;;;7.00;99.90;;;;;;5076436;28;20078;-60
2022/09/22 05:37:15;;;;;;;8.15;4.28;;;7.00;99.90;;;;;;5075862;28;20175;-60
2022/09/22 05:39:40;;;;;;;9.70;5.53;;;7.00;99.90;;;;;;5094584;28;20079;-60
2022/09/22 05:42:06;;;;;;;9.32;4.88;;;7.00;99.90;;;;;;5094388;28;20044;-60
2022/09/22 05:44:32;;;;;;;8.13;4.30;;;7.00;99.90;;;;;;5094317;28;20073;-60
2022/09/22 05:46:58;;;;;;;10.48;4.55;;;7.00;99.90;;;;;;5094285;28;20154;-60
2022/09/22 05:49:23;;;;;;;10.32;3.97;;;7.00;99.90;;;;;;5095002;28;20055;-60
2022/09/22 05:51:54;;;;;;;8.82;4.55;;;7.00;99.90;;;;;;5093483;28;20085;-60
2022/09/22 05:54:19;;;;;;;8.88;4.57;;;7.10;99.90;;;;;;5094896;28;20054;-60
2022/09/22 05:56:45;;;;;;;7.88;4.45;;;7.10;99.90;;;;;;5076202;28;20040;-60
2022/09/22 05:59:11;;;;;;;9.77;4.68;;;7.10;99.90;;;;;;5093654;28;20040;-60
2022/09/22 06:01:37;;;;;;;10.40;5.75;;;7.10;99.90;;;;;;5076769;28;20032;-60
2022/09/22 06:04:03;;;;;;;7.88;4.25;;;7.10;99.90;;;;;;5094073;28;20119;-60
2022/09/22 06:06:29;;;;;;;7.75;4.15;;;7.20;99.90;;;;;;5093424;28;20107;-60
2022/09/22 06:08:54;;;;;;;7.60;4.50;;;7.20;99.90;;;;;;5067156;28;20051;-60
2022/09/22 06:11:20;;;;;;;10.75;4.13;;;7.20;99.90;;;;;;5073936;28;20117;-60
2022/09/22 06:13:49;;;;;;;7.43;4.07;;;7.30;99.90;;;;;;5073028;28;20044;-60
2022/09/22 06:16:15;;;;;;;7.72;3.80;;;7.30;99.90;;;;;;5072467;28;20587;-60
2022/09/22 06:18:45;;;;;;;6.50;3.60;;;7.40;99.90;;;;;;5060411;28;20094;-60
2022/09/22 06:21:11;;;;;;;7.35;4.30;;;7.50;99.90;;;;;;5072386;28;20136;-60
2022/09/22 06:23:38;;;;;;;8.25;4.03;;;7.50;99.90;;;;;;5071250;28;20398;-60
2022/09/22 06:26:03;;;;;;;10.70;4.40;;;7.60;99.90;;;;;;5070863;28;20047;-60
2022/09/22 06:28:29;;;;;;;7.20;4.47;;;7.70;99.90;;;;;;5054135;28;20044;-60
2022/09/22 06:30:58;;;;;;;9.52;4.88;;;7.70;99.90;;;;;;5086727;28;20043;-60
2022/09/22 06:33:24;;;;;;;6.82;3.97;;;7.80;99.90;;;;;;5073052;28;20797;-60
2022/09/22 06:35:50;;;;;;;10.32;5.22;;;7.90;99.90;;;;;;5072873;28;20070;-60
2022/09/22 06:38:15;;;;;;;10.32;4.63;;;7.90;99.90;;;;;;5073320;28;20051;-60
2022/09/22 06:40:42;;;;;;;8.95;4.65;;;8.00;99.90;;;;;;5072827;28;20043;-60
2022/09/22 06:43:21;;;;;;;10.02;5.05;;;8.10;99.90;;;;;;5056442;28;20047;-60
2022/09/22 06:45:50;;;;;;;10.75;4.90;;;8.20;99.90;;;;;;5056140;28;20051;-60
2022/09/22 06:48:17;;;;;;;9.63;4.72;;;8.20;99.90;;;;;;5090583;28;20048;-60
2022/09/22 06:50:52;;;;;;;9.57;4.82;;;8.30;99.90;;;;;;5071224;28;20044;-60
2022/09/22 06:53:18;;;;;;;10.63;4.93;;;8.40;99.90;;;;;;5075300;28;20048;-60
2022/09/22 06:55:44;;;;;;;9.23;5.15;;;8.50;99.90;;;;;;5081578;28;20071;-60
2022/09/22 06:58:12;;;;;;;8.77;5.03;;;8.50;99.90;;;;;;5086656;28;20100;-60
2022/09/22 07:00:40;;;;;;;7.75;5.18;;;8.70;99.90;;;;;;5086354;28;20055;-60
2022/09/22 07:03:08;;;;;;;10.30;5.75;;;8.80;99.90;;;;;;5054407;28;20496;-60
2022/09/22 07:05:35;;;;;;;10.18;5.15;;;8.90;99.90;;;;;;5089049;28;20493;-60
2022/09/22 07:08:03;;;;;;;9.20;5.60;;;9.00;99.90;;;;;;5090542;28;20143;-60
2022/09/22 07:10:30;;;;;;;9.80;5.07;;;9.00;99.90;;;;;;5089214;28;20113;-60
2022/09/22 07:12:59;;;;;;;9.65;5.43;;;9.10;99.90;;;;;;5090650;28;20040;-60
2022/09/22 07:15:24;;;;;;;9.25;5.20;;;9.20;99.90;;;;;;5072409;28;20140;-60
2022/09/22 07:17:51;;;;;;;11.38;5.68;;;9.30;99.90;;;;;;5071455;28;20634;-60
2022/09/22 07:20:19;;;;;;;9.93;5.28;;;9.40;99.90;;;;;;5069185;28;20093;-60
2022/09/22 07:22:45;;;;;;;10.23;5.22;;;9.50;99.90;;;;;;5072379;28;20053;-60
2022/09/22 07:25:12;;;;;;;9.77;4.93;;;9.60;99.90;;;;;;5054216;28;20051;-60
2022/09/22 07:27:37;;;;;;;8.90;4.50;;;9.70;99.90;;;;;;5086441;28;20430;-60
2022/09/22 07:30:03;;;;;;;10.50;4.65;;;9.80;99.90;;;;;;5055797;28;20123;-60
2022/09/22 07:32:34;;;;;;;8.95;4.80;;;9.90;99.90;;;;;;5085755;28;20043;-60
2022/09/22 07:35:00;;;;;;;11.45;4.47;;;10.00;99.90;;;;;;5052766;28;20052;-60
2022/09/22 07:37:28;;;;;;;8.48;4.50;;;10.10;99.90;;;;;;5051837;28;20041;-60
2022/09/22 07:39:55;;;;;;;12.52;5.28;;;10.20;99.90;;;;;;5051203;28;20087;-59
2022/09/22 07:42:20;;;;;;;8.52;4.22;;;10.30;99.90;;;;;;5069820;28;20613;-60
2022/09/22 07:50:16;;;;;;;10.18;4.75;;;10.60;99.90;;;;;;5085945;28;20370;-60
2022/09/22 07:52:42;;;;;;;7.35;4.47;;;10.70;99.90;;;;;;5068457;28;20048;-60
2022/09/22 07:55:08;;;;;;;7.07;3.90;;;10.80;99.90;;;;;;5077008;28;20589;-59
2022/09/22 07:57:33;;;;;;;8.50;4.28;;;10.90;99.90;;;;;;5064455;28;20036;-62
2022/09/22 07:59:59;;;;;;;9.63;4.75;;;10.90;99.90;;;;;;5067547;28;20043;-62
2022/09/22 08:02:27;;;;;;;11.90;4.40;;;11.00;99.90;;;;;;5102916;28;20504;-62
2022/09/22 08:04:55;;;;;;;8.50;4.35;;;11.10;99.90;;;;;;5090873;28;20047;-63
2022/09/22 08:07:20;;;;;;;8.05;4.35;;;11.20;99.90;;;;;;5110265;28;20473;-60
2022/09/22 08:09:46;;;;;;;9.95;4.63;;;11.30;99.90;;;;;;5105628;28;20036;-60
2022/09/22 08:12:12;;;;;;;7.10;3.60;;;11.30;99.90;;;;;;5045922;28;20469;-60
2022/09/22 08:14:38;;;;;;;6.22;3.88;;;11.40;99.90;;;;;;5071643;28;20123;-59
2022/09/22 08:17:09;;;;;;;7.20;3.92;;;11.50;99.90;;;;;;5072653;28;20143;-60
2022/09/22 08:19:35;;;;;;;7.45;3.22;;;11.60;99.90;;;;;;5087690;28;20431;-60
2022/09/22 08:22:01;;;;;;;6.38;3.58;;;11.70;99.90;;;;;;5082453;28;20071;-60
2022/09/22 08:24:27;;;;;;;8.55;3.60;;;11.80;99.90;;;;;;5056176;28;20047;-60
2022/09/22 08:26:54;;;;;;;6.93;3.22;;;11.90;99.90;;;;;;5075529;28;20037;-59
2022/09/22 08:29:21;;;;;;;5.70;3.15;;;11.90;99.90;;;;;;5068735;28;20053;-59
2022/09/22 08:31:47;;;;;;;10.68;3.22;;;12.00;99.90;;;;;;5071198;28;20060;-59
2022/09/22 08:34:17;;;;;;;8.55;2.88;;;12.10;99.90;;;;;;5053619;28;20544;-59
2022/09/22 08:36:45;;;;;;;7.57;2.97;;;12.20;99.90;;;;;;5054238;28;20036;-59
2022/09/22 08:39:10;;;;;;;7.72;2.75;;;12.30;99.90;;;;;;5055313;28;20049;-59
2022/09/22 08:41:55;;;;;;;5.45;3.10;;;12.40;99.90;;;;;;5053184;28;20051;-59
2022/09/22 08:44:27;;;;;;;5.25;2.30;;;12.50;99.90;;;;;;5073443;28;20050;-59
2022/09/22 08:46:57;;;;;;;8.13;2.70;;;12.60;99.90;;;;;;5071798;28;20051;-60
2022/09/22 08:52:39;;;;;;;7.55;2.47;;;12.80;99.90;;;;;;5071949;28;20119;-59
2022/09/22 08:55:11;;;;;;;6.63;2.22;;;12.90;99.90;;;;;;5053055;28;20056;-60
2022/09/22 08:57:50;;;;;;;7.85;2.72;;;13.00;99.90;;;;;;5072495;28;20044;-60
2022/09/22 09:00:17;;;;;;;4.72;1.98;;;13.10;99.90;;;;;;5089259;28;20036;-59
2022/09/22 09:03:16;;;;;;;8.38;2.45;;;13.20;99.90;;;;;;5090684;28;20064;-59
2022/09/22 09:05:45;;;;;;;5.88;2.15;;;13.20;99.90;;;;;;5056994;28;20119;-59
2022/09/22 09:08:23;;;;;;;7.35;2.50;;;13.30;99.90;;;;;;5072843;28;20508;-59
2022/09/22 09:11:15;;;;;;;6.28;2.38;;;13.40;99.90;;;;;;5072909;28;20110;-59
2022/09/22 09:13:43;;;;;;;4.53;2.17;;;13.50;99.90;;;;;;5092470;28;20036;-59
2022/09/22 09:16:30;;;;;;;11.43;2.75;;;13.50;99.90;;;;;;5094090;28;20051;-59
2022/09/22 09:19:16;;;;;;;9.05;2.65;;;13.60;99.90;;;;;;5075687;28;20439;-59
2022/09/22 09:21:50;;;;;;;9.88;2.78;;;13.70;99.90;;;;;;5095325;28;20044;-59
2022/09/22 09:24:46;;;;;;;6.57;2.00;;;13.70;99.90;;;;;;5080351;28;20039;-59
2022/09/22 09:27:18;;;;;;;6.18;2.33;;;13.90;99.90;;;;;;5075852;28;20036;-59
2022/09/22 09:30:08;;;;;;;5.97;2.40;;;13.90;99.90;;;;;;5075293;28;20047;-59
2022/09/22 09:32:53;;;;;;;6.30;2.05;;;14.00;99.90;;;;;;5094520;28;20127;-60
2022/09/22 09:35:36;;;;;;;4.30;1.77;;;14.10;99.90;;;;;;5059275;28;20122;-60
2022/09/22 09:38:09;;;;;;;7.45;2.05;;;14.30;99.90;;;;;;5083930;28;20126;-60
2022/09/22 09:40:35;;;;;;;5.97;2.38;;;14.40;99.90;;;;;;5067032;28;20048;-60
2022/09/22 09:43:03;;;;;;;5.25;2.38;;;14.40;99.90;;;;;;5074118;28;20423;-60
2022/09/22 09:46:05;;;;;;;6.05;2.33;;;14.50;99.90;;;;;;5072594;28;20064;-60
2022/09/22 09:48:57;;;;;;;5.18;2.05;;;14.60;99.90;;;;;;5055228;28;20123;-60
2022/09/22 09:51:23;;;;;;;6.13;2.15;;;14.60;99.90;;;;;;5073923;28;20458;-60
2022/09/22 09:53:49;;;;;;;6.13;2.58;;;14.60;99.90;;;;;;5056072;28;20079;-60
2022/09/22 09:56:27;;;;;;;6.82;2.17;;;14.70;99.90;;;;;;5074573;28;20477;-60
2022/09/22 10:01:45;;;;;;;4.75;2.25;;;14.90;99.90;;;;;;5074524;28;20037;-60
2022/09/22 10:04:24;;;;;;;7.53;2.67;;;14.90;99.90;;;;;;5074306;28;20045;-60
2022/09/22 10:06:50;;;;;;;5.90;2.92;;;15.00;99.90;;;;;;5073789;28;20037;-60
2022/09/22 10:09:27;;;;;;;12.65;4.32;;;15.20;99.90;;;;;;5056435;28;20051;-60
2022/09/22 10:12:01;;;;;;;9.68;4.22;;;15.20;99.90;;;;;;5071828;28;20393;-60
2022/09/22 10:14:36;;;;;;;9.35;4.38;;;15.30;99.90;;;;;;5074251;28;20115;-60
2022/09/22 10:17:02;;;;;;;6.72;4.22;;;15.30;99.90;;;;;;5055739;28;20485;-60
2022/09/22 10:19:33;;;;;;;9.43;4.18;;;15.30;99.90;;;;;;5055399;28;20044;-60
2022/09/22 10:22:28;;;;;;;9.20;4.28;;;15.30;99.90;;;;;;5073444;28;20057;-60
2022/09/22 10:25:00;;;;;;;8.00;4.60;;;15.50;99.90;;;;;;5058389;28;20052;-60
2022/09/22 10:27:28;;;;;;;8.38;4.55;;;15.50;99.90;;;;;;5038302;28;20044;-60
2022/09/22 10:30:11;;;;;;;8.63;5.20;;;15.50;99.90;;;;;;5055479;28;20056;-60
2022/09/22 10:32:38;;;;;;;6.75;4.85;;;15.60;99.90;;;;;;5055588;28;20047;-60
2022/09/22 10:35:27;;;;;;;10.07;4.25;;;15.60;99.90;;;;;;5038629;28;20055;-60
2022/09/22 10:38:00;;;;;;;6.60;3.92;;;15.70;99.90;;;;;;5073050;28;20047;-60
2022/09/22 10:40:27;;;;;;;6.88;3.70;;;15.70;99.90;;;;;;5073000;28;20044;-60
2022/09/22 10:42:56;;;;;;;7.72;4.00;;;15.80;99.90;;;;;;5055397;28;20436;-60
2022/09/22 10:45:40;;;;;;;10.10;4.82;;;15.80;99.90;;;;;;5073594;28;20524;-60
2022/09/22 10:48:24;;;;;;;8.95;4.30;;;15.80;99.90;;;;;;5072210;28;20044;-60
2022/09/22 10:51:02;;;;;;;6.70;3.92;;;15.80;99.90;;;;;;5073068;28;20044;-60
2022/09/22 10:53:59;;;;;;;9.50;3.70;;;15.90;99.90;;;;;;5073327;28;20055;-60
2022/09/22 10:56:24;;;;;;;7.47;3.72;;;16.00;99.90;;;;;;5073122;28;20504;-60
2022/09/22 10:58:56;;;;;;;7.03;3.45;;;16.00;99.90;;;;;;5071372;28;20040;-60
2022/09/22 11:01:24;;;;;;;8.93;4.28;;;16.00;99.90;;;;;;5071247;28;20098;-60
2022/09/22 11:03:57;;;;;;;7.15;3.42;;;16.10;99.90;;;;;;5071601;28;20044;-60
2022/09/22 11:12:15;;;;;;;6.60;4.28;;;16.10;99.90;;;;;;5051087;28;20090;-60
2022/09/22 11:13:19;;;;;;;7.68;4.10;;;16.20;99.50;;;;;;5072407;28;20136;-60
2022/09/22 11:16:12;;;;;;;7.80;4.40;;;16.30;98.90;;;;;;5072145;28;20041;-60
2022/09/22 11:19:02;;;;;;;8.43;4.70;;;16.20;99.40;;;;;;5072999;28;20044;-62
2022/09/22 11:21:42;;;;;;;8.43;5.22;;;16.30;98.90;;;;;;5072397;28;20040;-61
2022/09/22 11:24:32;;;;;;;9.90;6.03;;;16.40;99.60;;;;;;5072605;28;20405;-61
2022/09/22 11:27:00;;;;;;;11.35;5.55;;;16.50;98.90;;;;;;5059496;28;20157;-61
2022/09/22 11:29:31;;;;;;;10.90;6.13;;;16.50;99.30;;;;;;5054221;28;20056;-61
2022/09/22 11:32:13;;;;;;;9.13;5.97;;;16.60;97.90;;;;;;5078198;28;20086;-61
2022/09/22 11:34:54;;;;;;;8.80;5.80;;;16.60;97.50;;;;;;5086498;28;20122;-61
2022/09/22 11:37:30;;;;;;;8.35;5.50;;;16.60;97.40;;;;;;5089742;28;20127;-63
2022/09/22 11:40:19;;;;;;;10.52;5.30;;;16.50;96.70;;;;;;5091886;28;20492;-63
2022/09/22 11:42:54;;;;;;;10.93;6.05;;;16.60;97.40;;;;;;5086113;28;20036;-62
2022/09/22 11:45:43;;;;;;;9.85;5.57;;;16.60;97.70;;;;;;5083475;28;20584;-62
2022/09/22 11:48:30;;;;;;;8.68;5.95;;;16.60;98.00;;;;;;5094378;28;20043;-62
2022/09/22 11:51:11;;;;;;;8.80;5.82;;;16.70;94.70;;;;;;5094033;28;20484;-63
2022/09/22 11:53:46;;;;;;;9.18;6.07;;;16.80;96.20;;;;;;5092567;28;20397;-62
2022/09/22 11:56:23;;;;;;;9.40;6.88;;;16.80;97.00;;;;;;5078376;28;20051;-63
2022/09/22 11:58:52;;;;;;;8.82;6.15;;;16.90;95.90;;;;;;5111540;28;20396;-63
2022/09/22 12:01:21;;;;;;;12.75;7.63;;;17.00;95.10;;;;;;5087721;28;20040;-63
2022/09/22 12:03:54;;;;;;;9.23;6.70;;;17.00;94.60;;;;;;5092014;28;20039;-64
2022/09/22 12:06:25;;;;;;;8.77;6.63;;;17.00;93.70;;;;;;5092678;28;20040;-63
2022/09/22 12:08:56;;;;;;;10.10;6.00;;;17.00;94.40;;;;;;5054052;28;20041;-62
2022/09/22 12:11:25;;;;;;;11.15;6.88;;;17.00;94.70;;;;;;5060646;28;20119;-63
2022/09/22 12:13:54;;;;;;;16.25;7.55;;;17.10;94.80;;;;;;5065870;28;20036;-63
2022/09/22 12:16:40;;;;;;;10.30;7.07;;;17.10;94.40;;;;;;5077553;28;20540;-64
2022/09/22 12:19:18;;;;;;;12.20;7.85;;;17.10;93.90;;;;;;5093079;28;20036;-63
2022/09/22 12:21:51;;;;;;;12.23;7.75;;;17.00;93.80;;;;;;5062953;28;20110;-64
2022/09/22 12:24:17;;;;;;;16.13;7.57;;;16.80;93.80;;;;;;5072263;28;20049;-63
2022/09/22 12:26:45;;;;;;;12.43;7.30;;;16.80;94.90;;;;;;5071430;28;20041;-63
2022/09/22 12:29:14;;;;;;;14.57;7.47;;;16.90;94.80;;;;;;5077548;28;20036;-65
2022/09/22 12:31:46;;;;;;;10.50;6.85;;;17.00;94.40;;;;;;5090111;28;20134;-62
2022/09/22 12:34:23;;;;;;;8.77;6.80;;;17.10;94.50;;;;;;5080632;28;20044;-63
2022/09/22 12:36:56;;;;;;;10.52;7.03;;;17.20;94.50;;;;;;5079445;28;20659;-63
2022/09/22 12:39:30;;;;;;;13.15;6.68;;;17.20;93.90;;;;;;5088491;28;20044;-62
2022/09/22 12:41:58;;;;;;;8.63;5.82;;;17.30;94.00;;;;;;5088649;28;20481;-62
2022/09/22 12:44:29;;;;;;;15.95;6.68;;;17.30;94.40;;;;;;5080716;28;20052;-62
2022/09/22 12:47:03;;;;;;;10.18;6.20;;;17.20;94.60;;;;;;5050161;28;20036;-62
2022/09/22 12:49:29;;;;;;;8.57;6.10;;;17.20;94.40;;;;;;5053030;28;20052;-62
2022/09/22 12:51:55;;;;;;;10.02;6.10;;;17.20;94.00;;;;;;5065376;28;20634;-62
2022/09/22 12:54:35;;;;;;;8.38;6.10;;;17.30;94.00;;;;;;5110220;28;20050;-62
2022/09/22 12:57:05;;;;;;;10.57;6.90;;;17.40;93.70;;;;;;5089586;28;20055;-62
2022/09/22 12:59:36;;;;;;;9.27;5.45;;;17.40;93.40;;;;;;5054932;28;20056;-62
2022/09/22 13:02:17;;;;;;;7.47;4.68;;;17.50;93.10;;;;;;5059531;28;20373;-61
2022/09/22 13:05:09;;;;;;;10.15;6.57;;;17.50;93.90;;;;;;5072966;28;20437;-62
2022/09/22 13:07:38;;;;;;;8.68;6.20;;;17.50;92.50;;;;;;5048116;28;20547;-61
2022/09/22 13:10:22;;;;;;;9.05;5.95;;;17.50;93.20;;;;;;5080849;28;20522;-63
2022/09/22 13:13:04;;;;;;;9.50;5.47;;;17.50;92.90;;;;;;5074570;28;20036;-62
2022/09/22 13:15:45;;;;;;;11.35;6.05;;;17.50;92.30;;;;;;5074489;28;20036;-61
2022/09/22 13:18:32;;;;;;;10.50;6.28;;;17.50;91.10;;;;;;5072045;28;20052;-61
2022/09/22 13:21:17;;;;;;;9.07;5.95;;;17.60;92.00;;;;;;5037602;28;20048;-61
2022/09/22 13:23:56;;;;;;;7.18;5.15;;;17.60;92.30;;;;;;5089108;28;20087;-61
2022/09/22 13:26:34;;;;;;;9.13;6.00;;;17.70;92.20;;;;;;5081876;28;20120;-61
2022/09/22 13:29:02;;;;;;;8.90;6.00;;;17.70;91.90;;;;;;5091476;28;20075;-61